createdAt,value
2023-05-21T00:02:20.415Z,100815.45
2023-05-21T00:04:48.037Z,100817.27
2023-05-21T00:07:15.980Z,100815.61
2023-05-21T00:09:43.885Z,100816.34
2023-05-21T00:12:11.450Z,100817.98
2023-05-21T00:14:39.064Z,100811.33
2023-05-21T00:17:06.972Z,100815.09
2023-05-21T00:19:34.706Z,100812.11
2023-05-21T00:22:05.017Z,100811.45
2023-05-21T00:24:32.476Z,100809.96
2023-05-21T00:27:00.150Z,100812.86
2023-05-21T00:29:28.216Z,100815.64
2023-05-21T00:31:56.467Z,100814.16
2023-05-21T00:34:24.073Z,100813.34
2023-05-21T00:36:53.869Z,100811.55
2023-05-21T00:39:21.623Z,100812.05
2023-05-21T00:41:49.954Z,100811.45
2023-05-21T00:44:18.875Z,100809.28
2023-05-21T00:46:49.205Z,100806.64
2023-05-21T00:49:17.562Z,100807.34
2023-05-21T00:51:46.332Z,100801.05
2023-05-21T00:54:14.418Z,100803.95
2023-05-21T00:56:42.052Z,100804.89
2023-05-21T00:59:09.572Z,100803.70
2023-05-21T01:01:37.737Z,100803.29
2023-05-21T01:04:05.523Z,100806.42
2023-05-21T01:06:35.966Z,100806.59
2023-05-21T01:09:07.448Z,100804.77
2023-05-21T01:11:40.458Z,100805.38
2023-05-21T01:14:09.753Z,100803.46
2023-05-21T01:16:37.913Z,100804.45
2023-05-21T01:19:05.880Z,100806.13
2023-05-21T01:21:38.197Z,100804.13
2023-05-21T01:24:08.499Z,100795.57
2023-05-21T01:26:39.264Z,100796.09
2023-05-21T01:29:07.195Z,100790.98
2023-05-21T01:31:56.036Z,100790.37
2023-05-21T01:34:31.308Z,100789.77
2023-05-21T01:37:28.573Z,100790.31
2023-05-21T01:39:57.725Z,100788.45
2023-05-21T01:42:25.365Z,100793.07
2023-05-21T01:44:54.994Z,100792.52
2023-05-21T01:47:25.842Z,100789.77
2023-05-21T01:49:53.514Z,100790.84
2023-05-21T01:52:21.137Z,100791.50
2023-05-21T01:54:50.414Z,100786.86
2023-05-21T01:57:18.916Z,100784.42
2023-05-21T01:59:48.251Z,100787.20
2023-05-21T02:02:16.063Z,100788.64
2023-05-21T02:04:44.532Z,100792.22
2023-05-21T02:07:14.675Z,100789.94
2023-05-21T02:09:42.273Z,100792.80
2023-05-21T02:12:09.740Z,100793.52
2023-05-21T02:14:38.788Z,100796.14
2023-05-21T02:17:08.456Z,100793.98
2023-05-21T02:19:36.004Z,100796.70
2023-05-21T02:22:03.510Z,100799.80
2023-05-21T02:24:31.757Z,100798.23
2023-05-21T02:26:59.259Z,100802.32
2023-05-21T02:29:26.820Z,100805.23
2023-05-21T02:31:54.952Z,100799.66
2023-05-21T02:34:22.774Z,100800.91
2023-05-21T02:36:52.647Z,100800.80
2023-05-21T02:39:20.293Z,100802.18
2023-05-21T02:41:47.785Z,100802.64
2023-05-21T02:44:15.880Z,100799.16
2023-05-21T02:46:43.441Z,100802.60
2023-05-21T02:49:11.293Z,100806.02
2023-05-21T02:51:39.732Z,100802.51
2023-05-21T02:54:07.342Z,100802.02
2023-05-21T02:56:34.782Z,100802.38
2023-05-21T02:59:02.537Z,100803.34
2023-05-21T03:01:30.474Z,100801.26
2023-05-21T03:03:58.294Z,100803.89
2023-05-21T03:06:25.861Z,100805.08
2023-05-21T03:08:53.417Z,100805.40
2023-05-21T03:11:22.912Z,100801.04
2023-05-21T03:13:50.554Z,100797.46
2023-05-21T03:16:18.292Z,100796.19
2023-05-21T03:18:45.765Z,100793.40
2023-05-21T03:21:15.796Z,100800.77
2023-05-21T03:23:43.408Z,100800.81
2023-05-21T03:26:11.960Z,100800.48
2023-05-21T03:28:39.414Z,100802.25
2023-05-21T03:31:07.686Z,100799.41
2023-05-21T03:33:46.023Z,100804.48
2023-05-21T03:36:19.033Z,100806.61
2023-05-21T03:38:46.834Z,100805.46
2023-05-21T03:41:14.345Z,100809.52
2023-05-21T03:43:43.550Z,100808.96
2023-05-21T03:46:11.452Z,100813.65
2023-05-21T03:48:58.605Z,100815.65
2023-05-21T03:51:27.861Z,100817.19
2023-05-21T03:53:55.671Z,100806.52
2023-05-21T03:56:23.462Z,100812.25
2023-05-21T03:58:50.977Z,100814.74
2023-05-21T04:01:18.515Z,100812.42
2023-05-21T04:03:47.076Z,100811.39
2023-05-21T04:06:15.897Z,100802.88
2023-05-21T04:08:43.744Z,100800.31
2023-05-21T04:11:11.348Z,100801.63
2023-05-21T04:13:39.242Z,100801.52
2023-05-21T04:16:09.437Z,100797.80
2023-05-21T04:18:37.172Z,100796.41
2023-05-21T04:21:05.361Z,100802.54
2023-05-21T04:23:33.854Z,100803.88
2023-05-21T04:26:02.242Z,100805.10
2023-05-21T04:28:30.285Z,100801.04
2023-05-21T04:30:58.170Z,100801.34
2023-05-21T04:33:26.250Z,100802.66
2023-05-21T04:35:54.190Z,100801.16
2023-05-21T04:38:21.804Z,100803.98
2023-05-21T04:40:52.629Z,100802.98
2023-05-21T04:43:26.515Z,100800.23
2023-05-21T04:45:55.425Z,100792.74
2023-05-21T04:48:25.978Z,100792.45
2023-05-21T04:50:54.139Z,100788.05
2023-05-21T04:53:23.945Z,100789.75
2023-05-21T04:55:51.505Z,100783.38
2023-05-21T04:58:19.859Z,100783.35
2023-05-21T05:00:47.738Z,100786.80
2023-05-21T05:03:16.602Z,100789.58
2023-05-21T05:05:44.689Z,100792.80
2023-05-21T05:08:15.505Z,100785.87
2023-05-21T05:10:43.863Z,100784.59
2023-05-21T05:13:12.997Z,100784.15
2023-05-21T05:15:40.952Z,100784.80
2023-05-21T05:18:09.045Z,100782.70
2023-05-21T05:20:36.560Z,100782.70
2023-05-21T05:23:04.108Z,100781.12
2023-05-21T05:25:31.530Z,100780.84
2023-05-21T05:27:59.276Z,100781.88
2023-05-21T05:30:26.827Z,100783.80
2023-05-21T05:32:55.628Z,100784.32
2023-05-21T05:35:23.100Z,100786.18
2023-05-21T05:37:50.664Z,100786.09
2023-05-21T05:40:18.139Z,100787.73
2023-05-21T05:42:45.709Z,100786.41
2023-05-21T05:45:15.627Z,100785.99
2023-05-21T05:47:43.127Z,100785.79
2023-05-21T05:50:11.351Z,100790.48
2023-05-21T05:52:38.915Z,100781.95
2023-05-21T05:55:09.334Z,100783.92
2023-05-21T05:57:37.677Z,100782.60
2023-05-21T06:00:13.878Z,100783.58
2023-05-21T06:02:43.874Z,100784.80
2023-05-21T06:05:11.473Z,100786.20
2023-05-21T06:07:39.110Z,100783.91
2023-05-21T06:10:07.892Z,100778.23
2023-05-21T06:12:35.478Z,100781.18
2023-05-21T06:15:03.351Z,100779.51
2023-05-21T06:17:32.097Z,100780.16
2023-05-21T06:20:00.929Z,100777.77
2023-05-21T06:22:28.503Z,100781.15
2023-05-21T06:24:56.131Z,100779.08
2023-05-21T06:27:23.622Z,100781.05
2023-05-21T06:29:52.446Z,100779.86
2023-05-21T06:32:21.836Z,100778.55
2023-05-21T06:34:49.511Z,100772.45
2023-05-21T06:37:26.461Z,100772.36
2023-05-21T06:39:54.725Z,100772.23
2023-05-21T06:42:22.535Z,100776.30
2023-05-21T06:45:03.088Z,100777.69
2023-05-21T06:47:34.561Z,100769.14
2023-05-21T06:50:02.821Z,100766.29
2023-05-21T06:52:32.109Z,100760.11
2023-05-21T06:55:01.014Z,100757.91
2023-05-21T06:57:31.697Z,100760.98
2023-05-21T06:59:59.368Z,100758.54
2023-05-21T07:02:27.160Z,100757.79
2023-05-21T07:04:56.114Z,100747.17
2023-05-21T07:07:23.590Z,100747.84
2023-05-21T07:09:52.232Z,100745.30
2023-05-21T07:12:19.780Z,100742.36
2023-05-21T07:14:48.512Z,100739.30
2023-05-21T07:17:16.036Z,100740.81
2023-05-21T07:19:43.562Z,100748.89
2023-05-21T07:22:13.057Z,100742.83
2023-05-21T07:24:40.495Z,100741.43
2023-05-21T07:27:17.764Z,100744.29
2023-05-21T07:29:53.300Z,100736.16
2023-05-21T07:32:21.489Z,100735.48
2023-05-21T07:34:49.422Z,100734.89
2023-05-21T07:37:17.056Z,100730.98
2023-05-21T07:39:44.635Z,100729.11
2023-05-21T07:42:13.107Z,100731.68
2023-05-21T07:44:41.732Z,100727.75
2023-05-21T07:47:09.274Z,100722.64
2023-05-21T07:49:36.708Z,100722.05
2023-05-21T07:52:04.582Z,100723.41
2023-05-21T07:54:32.283Z,100715.02
2023-05-21T07:56:59.754Z,100715.46
2023-05-21T07:59:46.081Z,100715.52
2023-05-21T08:02:13.647Z,100720.13
2023-05-21T08:04:42.864Z,100716.41
2023-05-21T08:07:11.154Z,100713.19
2023-05-21T08:09:38.822Z,100710.88
2023-05-21T08:12:08.245Z,100703.77
2023-05-21T08:14:35.840Z,100709.27
2023-05-21T08:17:03.419Z,100712.52
2023-05-21T08:19:31.606Z,100717.81
2023-05-21T08:21:59.228Z,100715.35
2023-05-21T08:24:26.852Z,100722.82
2023-05-21T08:26:54.413Z,100722.77
2023-05-21T08:29:21.999Z,100717.63
2023-05-21T08:31:49.650Z,100709.17
2023-05-21T08:34:18.819Z,100705.81
2023-05-21T08:36:54.229Z,100710.30
2023-05-21T08:39:47.668Z,100697.73
2023-05-21T08:42:39.932Z,100702.38
2023-05-21T08:45:08.245Z,100697.39
2023-05-21T08:47:37.121Z,100700.70
2023-05-21T08:50:05.938Z,100690.23
2023-05-21T08:52:33.589Z,100692.04
2023-05-21T08:55:01.394Z,100688.35
2023-05-21T08:57:28.863Z,100682.88
2023-05-21T08:59:57.385Z,100686.30
2023-05-21T09:02:27.011Z,100689.05
2023-05-21T09:04:57.945Z,100687.14
2023-05-21T09:07:27.890Z,100687.67
2023-05-21T09:10:13.183Z,100689.14
2023-05-21T09:12:41.378Z,100685.03
2023-05-21T09:15:09.094Z,100677.72
2023-05-21T09:17:38.388Z,100671.20
2023-05-21T09:20:21.129Z,100666.73
2023-05-21T09:22:55.818Z,100667.11
2023-05-21T09:25:28.701Z,100662.50
2023-05-21T09:27:58.113Z,100665.59
2023-05-21T09:30:27.804Z,100662.65
2023-05-21T09:32:59.551Z,100662.36
2023-05-21T09:35:27.170Z,100665.20
2023-05-21T09:37:54.679Z,100664.91
2023-05-21T09:40:23.495Z,100658.19
2023-05-21T09:42:52.412Z,100662.15
2023-05-21T09:45:21.260Z,100655.36
2023-05-21T09:47:50.170Z,100656.86
2023-05-21T09:50:31.988Z,100656.73
2023-05-21T09:52:59.350Z,100661.92
2023-05-21T09:55:26.976Z,100659.88
2023-05-21T09:57:54.401Z,100652.24
2023-05-21T10:00:23.348Z,100656.15
2023-05-21T10:02:55.382Z,100647.46
2023-05-21T10:05:26.822Z,100644.19
2023-05-21T10:07:54.862Z,100643.82
2023-05-21T10:10:23.336Z,100642.61
2023-05-21T10:13:01.962Z,100641.83
2023-05-21T10:15:32.050Z,100643.81
2023-05-21T10:17:59.593Z,100638.38
2023-05-21T10:20:27.160Z,100629.42
2023-05-21T10:22:54.673Z,100629.61
2023-05-21T10:25:22.263Z,100624.40
2023-05-21T10:27:49.783Z,100625.46
2023-05-21T10:30:17.806Z,100617.20
2023-05-21T10:32:45.495Z,100626.21
2023-05-21T10:35:13.200Z,100631.58
2023-05-21T10:37:40.781Z,100634.41
2023-05-21T10:40:08.850Z,100630.54
2023-05-21T10:42:56.531Z,100628.55
2023-05-21T10:45:25.587Z,100623.94
2023-05-21T10:48:15.351Z,100638.09
2023-05-21T10:50:54.058Z,100631.89
2023-05-21T10:53:55.998Z,100631.48
2023-05-21T10:56:31.353Z,100628.64
2023-05-21T10:59:03.330Z,100617.58
2023-05-21T11:01:34.347Z,100636.62
2023-05-21T11:04:02.105Z,100627.54
2023-05-21T11:06:29.657Z,100628.71
2023-05-21T11:08:57.265Z,100630.87
2023-05-21T11:11:55.294Z,100633.30
2023-05-21T11:14:36.172Z,100632.79
2023-05-21T11:17:07.142Z,100627.10
2023-05-21T11:19:39.029Z,100637.19
2023-05-21T11:22:26.965Z,100629.30
2023-05-21T11:24:55.557Z,100635.73
2023-05-21T11:27:37.157Z,100635.04
2023-05-21T11:30:11.332Z,100647.87
2023-05-21T11:32:40.407Z,100642.21
2023-05-21T11:35:08.542Z,100641.59
2023-05-21T11:37:36.378Z,100637.09
2023-05-21T11:40:26.642Z,100629.11
2023-05-21T11:42:55.527Z,100638.50
2023-05-21T11:45:31.210Z,100640.82
2023-05-21T11:47:59.046Z,100639.20
2023-05-21T11:50:26.729Z,100637.14
2023-05-21T11:52:54.180Z,100639.77
2023-05-21T11:55:26.319Z,100631.09
2023-05-21T11:57:55.597Z,100631.17
2023-05-21T12:00:23.567Z,100629.71
2023-05-21T12:02:52.388Z,100631.98
2023-05-21T12:05:20.114Z,100623.38
2023-05-21T12:07:51.934Z,100624.14
2023-05-21T12:10:24.172Z,100619.96
2023-05-21T12:12:55.464Z,100622.61
2023-05-21T12:15:25.472Z,100625.02
2023-05-21T12:17:55.788Z,100623.48
2023-05-21T12:20:24.157Z,100624.96
2023-05-21T12:22:51.841Z,100625.68
2023-05-21T12:25:20.971Z,100630.31
2023-05-21T12:27:51.285Z,100621.43
2023-05-21T12:30:19.207Z,100615.86
2023-05-21T12:32:46.801Z,100611.86
2023-05-21T12:35:24.494Z,100614.40
2023-05-21T12:37:52.601Z,100611.63
2023-05-21T12:40:20.525Z,100616.19
2023-05-21T12:42:48.085Z,100615.45
2023-05-21T12:45:15.722Z,100609.35
2023-05-21T12:47:43.108Z,100615.21
2023-05-21T12:50:14.355Z,100612.30
2023-05-21T12:52:43.601Z,100607.55
2023-05-21T12:55:15.398Z,100612.59
2023-05-21T12:57:44.393Z,100608.85
2023-05-21T13:00:13.074Z,100609.52
2023-05-21T13:02:41.699Z,100608.80
2023-05-21T13:05:10.994Z,100612.85
2023-05-21T13:07:39.890Z,100611.70
2023-05-21T13:10:08.255Z,100617.92
2023-05-21T13:12:36.142Z,100617.48
2023-05-21T13:15:05.836Z,100614.95
2023-05-21T13:17:33.349Z,100616.15
2023-05-21T13:20:20.493Z,100610.84
2023-05-21T13:22:49.449Z,100614.80
2023-05-21T13:25:20.760Z,100613.54
2023-05-21T13:27:49.216Z,100608.02
2023-05-21T13:30:16.740Z,100605.66
2023-05-21T13:32:44.336Z,100606.82
2023-05-21T13:35:12.652Z,100603.30
2023-05-21T13:37:41.108Z,100604.45
2023-05-21T13:40:15.891Z,100606.26
2023-05-21T13:42:44.732Z,100604.42
2023-05-21T13:45:13.163Z,100603.57
2023-05-21T13:47:40.882Z,100603.35
2023-05-21T13:50:09.477Z,100604.55
2023-05-21T13:52:37.729Z,100600.15
2023-05-21T13:55:06.293Z,100597.91
2023-05-21T13:57:34.124Z,100602.67
2023-05-21T14:00:01.831Z,100598.38
2023-05-21T14:02:35.431Z,100591.51
2023-05-21T14:05:03.081Z,100594.48
2023-05-21T14:07:31.434Z,100597.05
2023-05-21T14:09:59.051Z,100594.98
2023-05-21T14:12:27.248Z,100597.91
2023-05-21T14:14:54.672Z,100591.43
2023-05-21T14:17:22.230Z,100591.67
2023-05-21T14:19:49.744Z,100590.30
2023-05-21T14:22:17.250Z,100586.89
2023-05-21T14:24:44.695Z,100584.06
2023-05-21T14:27:14.567Z,100586.99
2023-05-21T14:29:43.071Z,100588.33
2023-05-21T14:32:10.695Z,100585.84
2023-05-21T14:34:39.608Z,100582.03
2023-05-21T14:37:07.513Z,100584.66
2023-05-21T14:39:35.110Z,100581.80
2023-05-21T14:42:06.150Z,100578.75
2023-05-21T14:44:33.880Z,100577.98
2023-05-21T14:47:01.445Z,100575.44
2023-05-21T14:49:29.004Z,100568.40
2023-05-21T14:51:56.485Z,100568.27
2023-05-21T14:54:23.993Z,100563.21
2023-05-21T14:56:51.602Z,100564.14
2023-05-21T14:59:19.153Z,100563.27
2023-05-21T15:01:47.048Z,100555.61
2023-05-21T15:04:14.763Z,100557.02
2023-05-21T15:06:42.626Z,100560.38
2023-05-21T15:09:10.122Z,100559.04
2023-05-21T15:11:37.603Z,100558.41
2023-05-21T15:14:05.124Z,100558.17
2023-05-21T15:16:32.732Z,100549.84
2023-05-21T15:19:00.260Z,100553.55
2023-05-21T15:21:28.288Z,100556.29
2023-05-21T15:23:56.268Z,100553.55
2023-05-21T15:26:25.918Z,100549.38
2023-05-21T15:28:53.417Z,100549.52
2023-05-21T15:31:20.942Z,100556.69
2023-05-21T15:33:49.393Z,100549.87
2023-05-21T15:36:17.167Z,100555.84
2023-05-21T15:38:44.912Z,100559.95
2023-05-21T15:41:12.628Z,100558.89
2023-05-21T15:43:40.153Z,100560.30
2023-05-21T15:46:07.666Z,100560.09
2023-05-21T15:48:35.579Z,100555.98
2023-05-21T15:51:03.073Z,100554.17
2023-05-21T15:53:30.772Z,100554.75
2023-05-21T15:55:58.249Z,100554.70
2023-05-21T15:58:25.796Z,100553.89
2023-05-21T16:00:53.447Z,100551.40
2023-05-21T16:03:21.199Z,100551.65
2023-05-21T16:05:49.093Z,100549.58
2023-05-21T16:08:16.701Z,100550.37
2023-05-21T16:10:46.306Z,100552.59
2023-05-21T16:13:13.861Z,100550.04
2023-05-21T16:15:41.650Z,100551.86
2023-05-21T16:18:10.180Z,100551.51
2023-05-21T16:20:37.917Z,100551.90
2023-05-21T16:23:06.869Z,100557.84
2023-05-21T16:25:36.674Z,100558.83
2023-05-21T16:28:04.894Z,100556.29
2023-05-21T16:30:32.319Z,100555.15
2023-05-21T16:33:00.400Z,100554.00
2023-05-21T16:35:27.901Z,100549.61
2023-05-21T16:37:55.708Z,100556.91
2023-05-21T16:40:23.449Z,100556.36
2023-05-21T16:42:52.339Z,100554.96
2023-05-21T16:45:21.896Z,100554.14
2023-05-21T16:47:53.075Z,100553.86
2023-05-21T16:50:21.113Z,100549.02
2023-05-21T16:52:48.668Z,100550.98
2023-05-21T16:55:16.390Z,100555.80
2023-05-21T16:57:44.085Z,100552.39
2023-05-21T17:00:12.514Z,100549.13
2023-05-21T17:02:40.137Z,100547.78
2023-05-21T17:05:08.517Z,100546.77
2023-05-21T17:07:36.072Z,100541.05
2023-05-21T17:10:04.230Z,100534.41
2023-05-21T17:12:32.015Z,100541.23
2023-05-21T17:14:59.624Z,100535.96
2023-05-21T17:17:27.742Z,100533.34
2023-05-21T17:19:55.399Z,100532.13
2023-05-21T17:22:23.146Z,100532.12
2023-05-21T17:24:51.091Z,100530.17
2023-05-21T17:27:18.772Z,100532.56
2023-05-21T17:29:46.292Z,100532.73
2023-05-21T17:32:14.071Z,100528.15
2023-05-21T17:34:41.589Z,100530.21
2023-05-21T17:37:09.135Z,100528.80
2023-05-21T17:39:36.771Z,100528.84
2023-05-21T17:42:04.658Z,100529.45
2023-05-21T17:44:32.232Z,100529.73
2023-05-21T17:47:00.064Z,100529.64
2023-05-21T17:49:27.738Z,100527.59
2023-05-21T17:51:55.222Z,100529.00
2023-05-21T17:54:23.154Z,100528.90
2023-05-21T17:56:50.767Z,100529.20
2023-05-21T17:59:18.386Z,100529.09
2023-05-21T18:01:46.250Z,100533.07
2023-05-21T18:04:13.977Z,100532.60
2023-05-21T18:06:41.609Z,100534.45
2023-05-21T18:09:11.127Z,100534.66
2023-05-21T18:11:39.283Z,100536.48
2023-05-21T18:14:06.904Z,100534.38
2023-05-21T18:16:34.484Z,100533.30
2023-05-21T18:19:07.899Z,100534.77
2023-05-21T18:21:35.734Z,100533.54
2023-05-21T18:24:03.667Z,100534.00
2023-05-21T18:26:31.172Z,100534.30
2023-05-21T18:28:59.103Z,100534.60
2023-05-21T18:31:26.740Z,100534.82
2023-05-21T18:33:54.391Z,100528.29
2023-05-21T18:36:23.084Z,100532.95
2023-05-21T18:38:51.314Z,100534.89
2023-05-21T18:41:20.316Z,100540.00
2023-05-21T18:43:47.977Z,100541.17
2023-05-21T18:46:16.233Z,100541.38
2023-05-21T18:48:44.153Z,100541.42
2023-05-21T18:51:12.069Z,100537.83
2023-05-21T18:53:40.846Z,100534.23
2023-05-21T18:56:10.357Z,100532.83
2023-05-21T18:58:38.771Z,100529.95
2023-05-21T19:01:06.970Z,100533.88
2023-05-21T19:03:34.588Z,100527.22
2023-05-21T19:06:02.308Z,100524.40
2023-05-21T19:08:29.990Z,100525.88
2023-05-21T19:10:57.666Z,100525.27
2023-05-21T19:13:25.251Z,100524.11
2023-05-21T19:15:53.299Z,100525.55
2023-05-21T19:18:21.309Z,100521.80
2023-05-21T19:20:49.044Z,100521.79
2023-05-21T19:23:16.724Z,100519.27
2023-05-21T19:25:44.323Z,100518.26
2023-05-21T19:28:11.781Z,100521.02
2023-05-21T19:30:39.777Z,100522.17
2023-05-21T19:33:07.871Z,100516.64
2023-05-21T19:35:35.450Z,100518.10
2023-05-21T19:38:05.079Z,100515.17
2023-05-21T19:40:33.994Z,100516.90
2023-05-21T19:43:01.693Z,100516.94
2023-05-21T19:45:29.419Z,100517.50
2023-05-21T19:47:57.235Z,100514.38
2023-05-21T19:50:25.426Z,100512.27
2023-05-21T19:52:54.040Z,100512.48
2023-05-21T19:55:21.645Z,100510.41
2023-05-21T19:57:49.223Z,100507.67
2023-05-21T20:00:17.264Z,100508.06
2023-05-21T20:02:46.294Z,100510.04
2023-05-21T20:05:14.241Z,100510.21
2023-05-21T20:07:41.919Z,100509.61
2023-05-21T20:10:09.578Z,100512.55
2023-05-21T20:12:37.356Z,100511.14
2023-05-21T20:15:08.698Z,100509.10
2023-05-21T20:17:36.282Z,100509.02
2023-05-21T20:20:06.655Z,100511.30
2023-05-21T20:22:34.337Z,100509.30
2023-05-21T20:25:04.233Z,100509.11
2023-05-21T20:27:32.484Z,100506.70
2023-05-21T20:29:59.977Z,100504.95
2023-05-21T20:32:27.685Z,100505.75
2023-05-21T20:35:02.701Z,100503.02
2023-05-21T20:37:32.822Z,100501.47
2023-05-21T20:40:00.383Z,100502.14
2023-05-21T20:42:28.900Z,100503.94
2023-05-21T20:44:59.254Z,100503.69
2023-05-21T20:47:30.313Z,100505.48
2023-05-21T20:49:59.721Z,100505.33
2023-05-21T20:52:27.446Z,100506.20
2023-05-21T20:54:59.983Z,100505.70
2023-05-21T20:57:27.723Z,100508.64
2023-05-21T20:59:55.262Z,100511.67
2023-05-21T21:02:23.530Z,100508.66
2023-05-21T21:04:51.142Z,100506.96
2023-05-21T21:07:18.896Z,100506.00
2023-05-21T21:09:49.696Z,100505.63
2023-05-21T21:14:47.683Z,100506.88
2023-05-21T21:17:15.205Z,100507.18
2023-05-21T21:19:42.688Z,100499.83
2023-05-21T21:22:10.266Z,100496.40
2023-05-21T21:24:37.878Z,100498.31
2023-05-21T21:27:06.528Z,100497.56
2023-05-21T21:29:34.024Z,100499.11
2023-05-21T21:32:01.608Z,100501.99
2023-05-21T21:34:29.151Z,100502.20
2023-05-21T21:36:56.667Z,100501.88
2023-05-21T21:39:26.736Z,100502.17
2023-05-21T21:41:54.372Z,100503.58
2023-05-21T21:44:21.889Z,100505.09
2023-05-21T21:46:49.510Z,100509.30
2023-05-21T21:49:17.724Z,100508.17
2023-05-21T21:51:45.419Z,100505.45
2023-05-21T21:54:12.981Z,100512.35
2023-05-21T21:56:40.589Z,100510.34
2023-05-21T21:59:08.284Z,100512.80
2023-05-21T22:01:36.581Z,100508.33
2023-05-21T22:04:04.304Z,100508.41
2023-05-21T22:06:32.385Z,100507.88
2023-05-21T22:09:00.226Z,100506.66
2023-05-21T22:11:28.852Z,100502.57
2023-05-21T22:13:56.518Z,100505.77
2023-05-21T22:16:27.953Z,100503.60
2023-05-21T22:18:55.860Z,100505.11
2023-05-21T22:21:27.460Z,100504.35
2023-05-21T22:23:55.099Z,100501.67
2023-05-21T22:26:23.476Z,100501.30
2023-05-21T22:28:51.760Z,100497.38
2023-05-21T22:31:19.585Z,100501.60
2023-05-21T22:33:47.331Z,100505.23
2023-05-21T22:36:14.927Z,100502.18
2023-05-21T22:38:44.336Z,100500.02
2023-05-21T22:41:11.956Z,100502.17
2023-05-21T22:43:39.537Z,100494.54
2023-05-21T22:46:07.311Z,100494.33
2023-05-21T22:48:37.515Z,100492.27
2023-05-21T22:51:05.853Z,100492.23
2023-05-21T22:53:33.859Z,100493.56
2023-05-21T22:56:01.552Z,100493.60
2023-05-21T22:58:29.120Z,100494.39
2023-05-21T23:00:56.803Z,100491.14
2023-05-21T23:03:24.506Z,100491.27
2023-05-21T23:05:52.022Z,100488.77
2023-05-21T23:08:19.792Z,100490.14
2023-05-21T23:10:47.284Z,100487.42
2023-05-21T23:13:14.881Z,100486.55
2023-05-21T23:15:44.275Z,100485.08
2023-05-21T23:18:12.095Z,100486.46
2023-05-21T23:20:41.794Z,100481.75
2023-05-21T23:23:10.816Z,100483.30
2023-05-21T23:25:38.374Z,100484.59
2023-05-21T23:28:06.111Z,100485.09
2023-05-21T23:30:33.801Z,100482.01
2023-05-21T23:33:01.485Z,100480.31
2023-05-21T23:35:29.277Z,100479.67
2023-05-21T23:37:56.863Z,100476.89
2023-05-21T23:40:24.434Z,100481.30
2023-05-21T23:42:52.021Z,100480.06
2023-05-21T23:45:19.844Z,100481.27
2023-05-21T23:47:47.578Z,100483.05
2023-05-21T23:50:15.341Z,100483.39
2023-05-21T23:52:43.287Z,100479.67
2023-05-21T23:55:12.914Z,100475.05
2023-05-21T23:57:41.433Z,100475.62
